createdAt,value
2022-10-25T00:02:18.222Z,13.90
2022-10-25T00:04:47.793Z,13.80
2022-10-25T00:07:17.836Z,13.80
2022-10-25T00:09:46.313Z,13.80
2022-10-25T00:12:14.702Z,13.70
2022-10-25T00:14:43.108Z,13.60
2022-10-25T00:17:11.846Z,13.60
2022-10-25T00:19:40.520Z,13.60
2022-10-25T00:22:09.430Z,13.60
2022-10-25T00:24:39.148Z,13.50
2022-10-25T00:27:07.599Z,13.40
2022-10-25T00:29:36.692Z,13.50
2022-10-25T00:32:05.262Z,13.50
2022-10-25T00:34:33.779Z,13.40
2022-10-25T00:37:02.485Z,13.40
2022-10-25T00:39:31.420Z,13.30
2022-10-25T00:42:02.579Z,13.20
2022-10-25T00:44:52.652Z,13.20
2022-10-25T00:47:47.677Z,13.20
2022-10-25T00:50:35.698Z,13.20
2022-10-25T00:53:10.443Z,13.20
2022-10-25T00:55:43.149Z,13.20
2022-10-25T00:58:19.053Z,13.20
2022-10-25T01:00:48.822Z,13.10
2022-10-25T01:03:20.095Z,13.20
2022-10-25T01:05:51.162Z,13.20
2022-10-25T01:08:22.502Z,13.10
2022-10-25T01:10:51.929Z,13.10
2022-10-25T01:13:22.778Z,13.00
2022-10-25T01:16:07.690Z,13.00
2022-10-25T01:18:47.249Z,12.90
2022-10-25T01:21:48.869Z,12.90
2022-10-25T01:24:52.982Z,12.80
2022-10-25T01:27:49.904Z,12.90
2022-10-25T01:30:24.267Z,12.80
2022-10-25T01:33:21.522Z,12.80
2022-10-25T01:36:00.298Z,12.80
2022-10-25T01:38:42.615Z,12.80
2022-10-25T01:41:26.224Z,12.80
2022-10-25T01:44:12.765Z,12.80
2022-10-25T01:46:50.285Z,12.80
2022-10-25T01:49:29.684Z,12.80
2022-10-25T01:51:59.619Z,12.90
2022-10-25T01:54:28.145Z,12.90
2022-10-25T01:57:29.788Z,12.90
2022-10-25T02:00:09.854Z,12.90
2022-10-25T02:03:11.587Z,12.90
2022-10-25T02:06:02.151Z,12.90
2022-10-25T02:08:41.691Z,12.90
2022-10-25T02:11:24.003Z,12.90
2022-10-25T02:14:08.999Z,12.90
2022-10-25T02:16:44.603Z,12.90
2022-10-25T02:19:19.715Z,12.80
2022-10-25T02:21:52.938Z,12.90
2022-10-25T02:24:26.613Z,12.90
2022-10-25T02:26:57.851Z,13.00
2022-10-25T02:29:31.182Z,13.00
2022-10-25T02:32:00.830Z,13.00
2022-10-25T02:34:29.787Z,12.90
2022-10-25T02:37:00.641Z,12.90
2022-10-25T02:39:31.784Z,12.90
2022-10-25T02:42:02.276Z,13.00
2022-10-25T02:44:30.824Z,13.00
2022-10-25T02:47:00.201Z,13.00
2022-10-25T02:49:29.167Z,13.00
2022-10-25T02:51:58.909Z,13.00
2022-10-25T02:54:27.767Z,13.00
2022-10-25T02:56:56.368Z,13.00
2022-10-25T02:59:25.339Z,13.00
2022-10-25T03:01:53.900Z,13.10
2022-10-25T03:04:22.551Z,13.10
2022-10-25T03:06:51.006Z,13.00
2022-10-25T03:09:21.397Z,13.10
2022-10-25T03:11:50.339Z,13.00
2022-10-25T03:14:19.299Z,13.00
2022-10-25T03:19:21.375Z,13.00
2022-10-25T03:21:50.057Z,12.90
2022-10-25T03:24:20.488Z,12.90
2022-10-25T03:26:49.433Z,12.90
2022-10-25T03:29:17.902Z,12.90
2022-10-25T03:31:46.709Z,12.90
2022-10-25T03:34:15.177Z,12.90
2022-10-25T03:36:43.585Z,13.00
2022-10-25T03:39:12.410Z,13.00
2022-10-25T03:41:42.142Z,13.10
2022-10-25T03:44:10.642Z,13.20
2022-10-25T03:46:39.334Z,13.30
2022-10-25T03:49:07.917Z,13.40
2022-10-25T03:51:36.762Z,13.50
2022-10-25T03:54:05.584Z,13.50
2022-10-25T03:56:33.994Z,13.50
2022-10-25T03:59:03.754Z,13.60
2022-10-25T04:01:32.515Z,13.60
2022-10-25T04:04:01.071Z,13.60
2022-10-25T04:06:30.003Z,13.50
2022-10-25T04:08:58.953Z,13.60
2022-10-25T04:11:27.736Z,13.60
2022-10-25T04:13:57.232Z,13.60
2022-10-25T04:16:27.572Z,13.50
2022-10-25T04:18:57.298Z,13.60
2022-10-25T04:21:26.185Z,13.70
2022-10-25T04:23:55.017Z,13.70
2022-10-25T04:26:24.048Z,13.60
2022-10-25T04:28:55.319Z,13.50
2022-10-25T04:31:26.027Z,13.30
2022-10-25T04:33:56.535Z,13.20
2022-10-25T04:36:25.473Z,13.20
2022-10-25T04:38:54.664Z,13.30
2022-10-25T04:41:24.420Z,13.30
2022-10-25T04:43:53.798Z,13.30
2022-10-25T04:46:23.076Z,13.30
2022-10-25T04:48:52.859Z,13.30
2022-10-25T04:51:21.708Z,13.20
2022-10-25T04:53:50.143Z,13.20
2022-10-25T04:56:19.136Z,13.20
2022-10-25T04:58:47.899Z,13.20
2022-10-25T05:01:19.282Z,13.10
2022-10-25T05:03:48.824Z,13.20
2022-10-25T05:06:22.198Z,13.10
2022-10-25T05:08:52.217Z,13.20
2022-10-25T05:11:24.548Z,13.10
2022-10-25T05:13:54.039Z,13.20
2022-10-25T05:16:25.749Z,13.20
2022-10-25T05:18:56.301Z,13.20
2022-10-25T05:21:28.693Z,13.20
2022-10-25T05:24:01.459Z,13.20
2022-10-25T05:26:32.472Z,13.30
2022-10-25T05:29:01.631Z,13.30
2022-10-25T05:31:31.983Z,13.30
2022-10-25T05:34:02.339Z,13.20
2022-10-25T05:36:33.283Z,13.20
2022-10-25T05:39:02.567Z,13.20
2022-10-25T05:41:34.583Z,13.20
2022-10-25T05:44:06.403Z,13.20
2022-10-25T05:46:35.468Z,13.20
2022-10-25T05:49:04.470Z,13.30
2022-10-25T05:51:36.564Z,13.30
2022-10-25T05:54:09.049Z,13.30
2022-10-25T05:56:38.907Z,13.20
2022-10-25T05:59:09.870Z,13.30
2022-10-25T06:01:41.750Z,13.20
2022-10-25T06:04:11.506Z,13.20
2022-10-25T06:06:43.555Z,13.20
2022-10-25T06:09:13.900Z,13.20
2022-10-25T06:11:42.626Z,13.30
2022-10-25T06:14:11.934Z,13.40
2022-10-25T06:16:40.506Z,13.50
2022-10-25T06:19:10.335Z,13.50
2022-10-25T06:21:40.701Z,13.50
2022-10-25T06:24:10.826Z,13.50
2022-10-25T06:26:39.659Z,13.50
2022-10-25T06:29:08.445Z,13.50
2022-10-25T06:31:37.382Z,13.40
2022-10-25T06:34:06.032Z,13.40
2022-10-25T06:36:34.823Z,13.50
2022-10-25T06:39:06.715Z,13.50
2022-10-25T06:41:37.876Z,13.50
2022-10-25T06:44:07.556Z,13.50
2022-10-25T06:49:28.488Z,13.50
2022-10-25T06:51:57.689Z,13.50
2022-10-25T06:54:28.064Z,13.60
2022-10-25T06:56:56.841Z,13.70
2022-10-25T06:59:25.900Z,13.70
2022-10-25T07:01:55.153Z,13.70
2022-10-25T07:04:23.846Z,13.80
2022-10-25T07:06:55.123Z,13.90
2022-10-25T07:09:27.254Z,13.90
2022-10-25T07:11:55.886Z,14.00
2022-10-25T07:14:24.290Z,14.10
2022-10-25T07:16:52.773Z,14.20
2022-10-25T07:19:23.095Z,14.20
2022-10-25T07:21:52.103Z,14.30
2022-10-25T07:24:20.934Z,14.40
2022-10-25T07:26:51.122Z,14.40
2022-10-25T07:29:20.294Z,14.50
2022-10-25T07:31:49.283Z,14.60
2022-10-25T07:34:17.703Z,14.70
2022-10-25T07:36:46.106Z,14.80
2022-10-25T07:39:14.529Z,14.90
2022-10-25T07:41:42.949Z,15.10
2022-10-25T07:44:17.519Z,15.20
2022-10-25T07:46:48.982Z,15.20
2022-10-25T07:49:17.476Z,15.10
2022-10-25T07:51:45.883Z,15.10
2022-10-25T07:54:14.657Z,15.10
2022-10-25T07:56:43.140Z,15.10
2022-10-25T07:59:13.257Z,15.10
2022-10-25T08:01:42.496Z,15.10
2022-10-25T08:04:10.920Z,15.10
2022-10-25T08:06:39.576Z,15.10
2022-10-25T08:09:14.632Z,15.10
2022-10-25T08:11:49.397Z,15.10
2022-10-25T08:14:19.401Z,15.10
2022-10-25T08:16:47.935Z,15.00
2022-10-25T08:19:16.376Z,15.10
2022-10-25T08:21:44.766Z,15.20
2022-10-25T08:24:13.373Z,15.30
2022-10-25T08:26:41.807Z,15.40
2022-10-25T08:29:10.844Z,15.30
2022-10-25T08:31:40.982Z,15.20
2022-10-25T08:36:39.907Z,15.10
2022-10-25T08:39:09.130Z,15.10
2022-10-25T08:41:49.217Z,15.10
2022-10-25T08:44:37.369Z,15.00
2022-10-25T08:47:14.776Z,15.00
2022-10-25T08:49:55.190Z,15.00
2022-10-25T08:52:31.039Z,15.00
2022-10-25T08:55:05.740Z,15.00
2022-10-25T08:57:40.640Z,14.90
2022-10-25T09:00:19.553Z,14.80
2022-10-25T09:02:54.378Z,14.70
2022-10-25T09:05:38.537Z,14.60
2022-10-25T09:08:32.378Z,14.40
2022-10-25T09:11:18.800Z,14.50
2022-10-25T09:13:56.544Z,14.50
2022-10-25T09:16:33.756Z,14.50
2022-10-25T09:19:15.036Z,14.50
2022-10-25T09:21:51.176Z,14.50
2022-10-25T09:24:27.009Z,14.70
2022-10-25T09:27:08.257Z,14.90
2022-10-25T09:29:42.371Z,14.90
2022-10-25T09:32:22.646Z,15.00
2022-10-25T09:34:55.725Z,15.00
2022-10-25T09:37:30.874Z,15.00
2022-10-25T09:40:08.844Z,14.90
2022-10-25T09:42:43.520Z,14.90
2022-10-25T09:45:24.108Z,14.90
2022-10-25T09:48:05.015Z,14.90
2022-10-25T09:50:41.815Z,15.00
2022-10-25T09:53:14.902Z,15.10
2022-10-25T09:55:53.768Z,15.30
2022-10-25T09:58:26.156Z,15.50
2022-10-25T10:00:57.745Z,15.50
2022-10-25T10:03:31.688Z,15.60
2022-10-25T10:06:08.366Z,15.70
2022-10-25T10:08:38.093Z,15.90
2022-10-25T10:11:07.465Z,16.20
2022-10-25T10:13:44.779Z,16.40
2022-10-25T10:16:24.597Z,16.60
2022-10-25T10:18:53.791Z,16.80
2022-10-25T10:21:24.845Z,16.90
2022-10-25T10:23:59.922Z,17.00
2022-10-25T10:26:32.909Z,17.10
2022-10-25T10:29:16.797Z,17.30
2022-10-25T10:31:51.545Z,17.40
2022-10-25T10:34:28.035Z,17.30
2022-10-25T10:37:14.427Z,17.50
2022-10-25T10:39:53.070Z,17.40
2022-10-25T10:42:23.939Z,17.50
2022-10-25T10:45:16.353Z,17.60
2022-10-25T10:47:55.947Z,17.80
2022-10-25T10:50:30.362Z,17.90
2022-10-25T10:53:05.916Z,17.90
2022-10-25T10:55:39.008Z,18.10
2022-10-25T10:58:15.960Z,18.10
2022-10-25T11:00:52.008Z,18.10
2022-10-25T11:03:58.988Z,18.10
2022-10-25T11:06:32.106Z,18.10
2022-10-25T11:09:17.754Z,18.00
2022-10-25T11:12:06.435Z,18.00
2022-10-25T11:14:35.584Z,17.90
2022-10-25T11:17:13.567Z,17.80
2022-10-25T11:20:06.010Z,17.70
2022-10-25T11:23:01.358Z,17.70
2022-10-25T11:25:45.145Z,17.60
2022-10-25T11:28:36.227Z,17.50
2022-10-25T11:31:22.231Z,17.50
2022-10-25T11:34:09.906Z,17.40
2022-10-25T11:36:57.802Z,17.40
2022-10-25T11:39:45.962Z,17.40
2022-10-25T11:42:49.954Z,17.50
2022-10-25T11:45:41.195Z,17.40
2022-10-25T11:48:32.540Z,17.30
2022-10-25T11:51:15.640Z,17.20
2022-10-25T11:54:14.328Z,17.20
2022-10-25T11:56:57.878Z,17.10
2022-10-25T11:59:44.828Z,17.10
2022-10-25T12:02:39.386Z,17.10
2022-10-25T12:05:29.529Z,17.10
2022-10-25T12:08:15.180Z,17.10
2022-10-25T12:10:50.523Z,17.20
2022-10-25T12:13:27.341Z,17.20
2022-10-25T12:16:00.450Z,17.20
2022-10-25T12:18:36.398Z,17.20
2022-10-25T12:21:06.823Z,17.20
2022-10-25T12:23:44.660Z,17.20
2022-10-25T12:26:24.324Z,17.20
2022-10-25T12:28:53.930Z,17.20
2022-10-25T12:31:28.625Z,17.30
2022-10-25T12:34:05.582Z,17.40
2022-10-25T12:36:41.704Z,17.40
2022-10-25T12:39:19.207Z,17.30
2022-10-25T12:41:53.560Z,17.30
2022-10-25T12:44:49.600Z,17.20
2022-10-25T12:47:40.412Z,17.10
2022-10-25T12:50:45.756Z,17.10
2022-10-25T12:54:06.992Z,17.00
2022-10-25T12:56:52.488Z,17.10
2022-10-25T12:59:42.823Z,17.10
2022-10-25T13:02:48.522Z,17.10
2022-10-25T13:06:12.321Z,17.10
2022-10-25T13:08:42.798Z,17.20
2022-10-25T13:11:13.464Z,17.30
2022-10-25T13:13:50.492Z,17.40
2022-10-25T13:16:28.748Z,17.50
2022-10-25T13:22:39.348Z,17.70
2022-10-25T13:25:39.301Z,17.50
2022-10-25T13:28:34.069Z,17.50
2022-10-25T13:31:48.021Z,17.40
2022-10-25T13:34:36.529Z,17.20
2022-10-25T13:37:43.145Z,17.10
2022-10-25T13:40:32.080Z,17.10
2022-10-25T13:43:06.155Z,17.10
2022-10-25T13:45:41.049Z,17.10
2022-10-25T13:48:23.194Z,17.10
2022-10-25T13:50:57.272Z,17.00
2022-10-25T13:53:36.018Z,16.90
2022-10-25T13:56:08.820Z,16.90
2022-10-25T13:58:50.747Z,16.80
2022-10-25T14:01:57.067Z,16.80
2022-10-25T14:04:40.237Z,16.80
2022-10-25T14:07:44.804Z,16.90
2022-10-25T14:10:28.902Z,16.90
2022-10-25T14:13:20.308Z,16.80
2022-10-25T14:15:59.184Z,16.70
2022-10-25T14:18:30.403Z,16.70
2022-10-25T14:21:05.677Z,16.70
2022-10-25T14:23:36.713Z,16.70
2022-10-25T14:26:15.206Z,16.70
2022-10-25T14:28:43.934Z,16.70
2022-10-25T14:31:17.238Z,16.70
2022-10-25T14:33:53.210Z,16.70
2022-10-25T14:36:30.168Z,16.70
2022-10-25T14:39:02.729Z,16.80
2022-10-25T14:41:34.940Z,16.70
2022-10-25T14:44:04.276Z,16.70
2022-10-25T14:46:33.953Z,16.70
2022-10-25T14:49:04.039Z,16.60
2022-10-25T14:51:37.035Z,16.60
2022-10-25T14:54:24.632Z,16.60
2022-10-25T14:56:58.345Z,16.60
2022-10-25T14:59:31.539Z,16.60
2022-10-25T15:02:05.910Z,16.50
2022-10-25T15:04:40.780Z,16.40
2022-10-25T15:07:23.571Z,16.40
2022-10-25T15:09:56.793Z,16.30
2022-10-25T15:12:27.558Z,16.30
2022-10-25T15:14:59.489Z,16.10
2022-10-25T15:17:30.369Z,16.10
2022-10-25T15:20:29.742Z,16.10
2022-10-25T15:23:06.041Z,16.10
2022-10-25T15:25:39.870Z,16.10
2022-10-25T15:28:15.279Z,16.20
2022-10-25T15:31:01.052Z,16.10
2022-10-25T15:33:33.366Z,16.10
2022-10-25T15:36:04.890Z,16.10
2022-10-25T15:39:05.874Z,16.00
2022-10-25T15:41:28.446Z,16.00
2022-10-25T15:43:57.357Z,15.90
2022-10-25T15:46:33.239Z,15.80
2022-10-25T15:49:06.622Z,15.70
2022-10-25T15:51:39.889Z,15.60
2022-10-25T15:54:16.387Z,15.50
2022-10-25T15:56:46.650Z,15.50
2022-10-25T16:01:55.561Z,15.50
2022-10-25T16:04:24.124Z,15.60
2022-10-25T16:06:52.528Z,15.50
2022-10-25T16:09:20.914Z,15.50
2022-10-25T16:11:55.390Z,15.40
2022-10-25T16:14:28.578Z,15.40
2022-10-25T16:17:00.063Z,15.40
2022-10-25T16:19:31.477Z,15.30
2022-10-25T16:22:00.126Z,15.30
2022-10-25T16:24:29.073Z,15.30
2022-10-25T16:27:00.791Z,15.30
2022-10-25T16:29:29.630Z,15.40
2022-10-25T16:31:58.195Z,15.40
2022-10-25T16:34:27.106Z,15.30
2022-10-25T16:36:55.868Z,15.30
2022-10-25T16:39:25.178Z,15.30
2022-10-25T16:41:55.479Z,15.30
2022-10-25T16:44:25.487Z,15.20
2022-10-25T16:46:54.043Z,15.00
2022-10-25T16:49:22.471Z,15.00
2022-10-25T16:51:52.270Z,14.90
2022-10-25T16:54:23.967Z,14.80
2022-10-25T16:56:53.034Z,14.70
2022-10-25T16:59:21.570Z,14.60
2022-10-25T17:01:55.872Z,14.80
2022-10-25T17:04:24.798Z,14.60
2022-10-25T17:06:53.954Z,14.50
2022-10-25T17:09:22.355Z,14.40
2022-10-25T17:11:50.797Z,14.30
2022-10-25T17:14:19.721Z,14.30
2022-10-25T17:16:48.358Z,14.20
2022-10-25T17:19:18.085Z,14.20
2022-10-25T17:21:46.519Z,14.10
2022-10-25T17:24:16.282Z,14.20
2022-10-25T17:26:44.746Z,14.30
2022-10-25T17:29:13.305Z,14.30
2022-10-25T17:31:41.949Z,14.20
2022-10-25T17:34:10.387Z,14.00
2022-10-25T17:36:40.739Z,13.90
2022-10-25T17:39:10.962Z,13.70
2022-10-25T17:41:39.978Z,13.60
2022-10-25T17:44:11.203Z,13.60
2022-10-25T17:46:39.921Z,13.50
2022-10-25T17:49:08.882Z,13.40
2022-10-25T17:51:37.695Z,13.30
2022-10-25T17:54:08.969Z,13.20
2022-10-25T17:56:37.788Z,13.20
2022-10-25T17:59:07.935Z,13.10
2022-10-25T18:01:37.003Z,13.00
2022-10-25T18:04:05.874Z,12.90
2022-10-25T18:06:34.344Z,12.90
2022-10-25T18:09:04.227Z,12.80
2022-10-25T18:11:33.946Z,12.80
2022-10-25T18:14:02.956Z,12.80
2022-10-25T18:16:33.338Z,12.70
2022-10-25T18:19:05.722Z,12.70
2022-10-25T18:21:34.849Z,12.70
2022-10-25T18:24:05.849Z,12.60
2022-10-25T18:26:36.623Z,12.60
2022-10-25T18:29:05.331Z,12.50
2022-10-25T18:31:33.874Z,12.50
2022-10-25T18:34:04.410Z,12.40
2022-10-25T18:36:33.711Z,12.30
2022-10-25T18:39:02.326Z,12.30
2022-10-25T18:41:33.942Z,12.20
2022-10-25T18:44:04.914Z,12.10
2022-10-25T18:46:33.808Z,12.10
2022-10-25T18:49:03.261Z,12.00
2022-10-25T18:51:31.916Z,12.00
2022-10-25T18:54:03.152Z,12.00
2022-10-25T18:56:32.623Z,11.90
2022-10-25T18:59:01.102Z,11.80
2022-10-25T19:01:33.362Z,11.80
2022-10-25T19:04:04.415Z,11.80
2022-10-25T19:06:33.815Z,11.70
2022-10-25T19:09:04.610Z,11.70
2022-10-25T19:11:34.528Z,11.70
2022-10-25T19:14:03.944Z,11.60
2022-10-25T19:16:35.848Z,11.60
2022-10-25T19:19:07.026Z,11.50
2022-10-25T19:21:36.224Z,11.50
2022-10-25T19:24:05.408Z,11.50
2022-10-25T19:26:33.837Z,11.60
2022-10-25T19:29:02.883Z,11.60
2022-10-25T19:31:32.727Z,11.60
2022-10-25T19:34:03.143Z,11.70
2022-10-25T19:36:32.585Z,11.80
2022-10-25T19:39:01.765Z,11.70
2022-10-25T19:41:31.028Z,11.70
2022-10-25T19:44:00.294Z,11.70
2022-10-25T19:46:29.231Z,11.70
2022-10-25T19:49:00.227Z,11.80
2022-10-25T19:51:29.495Z,11.80
2022-10-25T19:53:57.913Z,11.80
2022-10-25T19:56:26.665Z,11.80
2022-10-25T19:58:55.407Z,11.80
2022-10-25T20:01:27.149Z,11.70
2022-10-25T20:03:57.608Z,11.80
2022-10-25T20:06:30.659Z,11.70
2022-10-25T20:09:01.619Z,11.60
2022-10-25T20:11:31.389Z,11.60
2022-10-25T20:14:03.161Z,11.60
2022-10-25T20:16:33.188Z,11.60
2022-10-25T20:19:03.298Z,11.50
2022-10-25T20:21:36.392Z,11.50
2022-10-25T20:24:08.514Z,11.90
2022-10-25T20:26:40.696Z,11.70
2022-10-25T20:29:20.104Z,11.60
2022-10-25T20:31:50.735Z,11.50
2022-10-25T20:34:21.225Z,11.50
2022-10-25T20:36:51.140Z,11.40
2022-10-25T20:39:19.954Z,11.30
2022-10-25T20:41:49.149Z,11.20
2022-10-25T20:44:17.637Z,11.10
2022-10-25T20:46:46.382Z,11.10
2022-10-25T20:49:15.298Z,11.10
2022-10-25T20:51:43.761Z,11.10
2022-10-25T20:54:13.857Z,11.10
2022-10-25T20:56:42.245Z,11.10
2022-10-25T20:59:10.653Z,11.10
2022-10-25T21:01:39.655Z,11.20
2022-10-25T21:04:10.757Z,11.30
2022-10-25T21:06:39.738Z,11.30
2022-10-25T21:09:08.464Z,11.30
2022-10-25T21:11:38.253Z,11.40
2022-10-25T21:14:06.611Z,11.50
2022-10-25T21:16:35.015Z,11.40
2022-10-25T21:19:04.494Z,11.30
2022-10-25T21:21:32.924Z,11.30
2022-10-25T21:24:02.503Z,11.30
2022-10-25T21:26:30.911Z,11.30
2022-10-25T21:29:00.922Z,11.30
2022-10-25T21:31:29.314Z,11.30
2022-10-25T21:34:00.858Z,11.20
2022-10-25T21:36:29.587Z,11.10
2022-10-25T21:38:58.264Z,11.10
2022-10-25T21:41:27.457Z,11.00
2022-10-25T21:43:58.364Z,11.00
2022-10-25T21:46:29.370Z,10.90
2022-10-25T21:48:57.833Z,10.90
2022-10-25T21:51:26.254Z,10.90
2022-10-25T21:53:55.679Z,10.80
2022-10-25T21:56:30.557Z,10.80
2022-10-25T21:59:01.271Z,10.80
2022-10-25T22:01:32.506Z,10.80
2022-10-25T22:04:01.054Z,10.80
2022-10-25T22:06:30.374Z,10.70
2022-10-25T22:08:59.693Z,10.70
2022-10-25T22:11:31.708Z,10.70
2022-10-25T22:14:02.458Z,10.70
2022-10-25T22:16:34.033Z,10.80
2022-10-25T22:19:05.567Z,10.70
2022-10-25T22:21:37.294Z,10.70
2022-10-25T22:24:09.112Z,10.70
2022-10-25T22:26:39.794Z,10.80
2022-10-25T22:29:11.405Z,10.70
2022-10-25T22:31:41.893Z,10.60
2022-10-25T22:34:10.889Z,10.60
2022-10-25T22:36:42.112Z,10.60
2022-10-25T22:39:10.975Z,10.50
2022-10-25T22:41:39.707Z,10.50
2022-10-25T22:44:08.670Z,10.40
2022-10-25T22:46:37.995Z,10.50
2022-10-25T22:49:10.508Z,10.50
2022-10-25T22:51:40.305Z,10.70
2022-10-25T22:54:09.481Z,10.80
2022-10-25T22:56:38.393Z,11.00
2022-10-25T22:59:07.629Z,11.10
2022-10-25T23:01:38.083Z,11.10
2022-10-25T23:04:10.700Z,11.10
2022-10-25T23:06:41.217Z,11.00
2022-10-25T23:09:11.818Z,10.90
2022-10-25T23:11:42.134Z,11.00
2022-10-25T23:14:14.880Z,10.80
2022-10-25T23:16:46.691Z,11.10
2022-10-25T23:19:17.301Z,11.10
2022-10-25T23:21:45.697Z,11.10
2022-10-25T23:24:14.162Z,11.10
2022-10-25T23:26:42.931Z,11.00
2022-10-25T23:29:13.212Z,10.90
2022-10-25T23:31:42.047Z,10.80
2022-10-25T23:34:11.606Z,10.70
2022-10-25T23:36:42.019Z,10.60
2022-10-25T23:39:10.675Z,10.50
2022-10-25T23:41:39.642Z,10.50
2022-10-25T23:44:08.210Z,10.40
2022-10-25T23:46:36.632Z,10.40
2022-10-25T23:49:04.994Z,10.30
2022-10-25T23:51:33.731Z,10.20
2022-10-25T23:54:04.017Z,10.20
2022-10-25T23:56:32.380Z,10.20
2022-10-25T23:59:00.733Z,10.10
